Time;durP1;ratioP1;P1;durP2;ratioP2;P2;SDS_P1;SDS_P2;PMS_P1;PMS_P2;Temp;Humidity;BMP_temperature;BMP_pressure;BME280_temperature;BME280_humidity;BME280_pressure;Samples;Min_cycle;Max_cycle;Signal;HPM_P1;HPM_P2
2023/04/29 00:02:23;;;;;;;27.52;17.38;;;;;;;;;;5054872;28;20483;-76
2023/04/29 00:04:50;;;;;;;26.40;16.98;;;;;;;;;;5053502;28;20075;-76
2023/04/29 00:07:16;;;;;;;31.10;19.65;;;;;;;;;;5073968;28;20409;-75
2023/04/29 00:09:42;;;;;;;30.17;17.83;;;;;;;;;;5071841;28;20379;-76
2023/04/29 00:12:09;;;;;;;27.02;18.23;;;;;;;;;;5070480;28;20119;-76
2023/04/29 00:14:36;;;;;;;29.92;17.52;;;;;;;;;;5055485;28;20048;-76
2023/04/29 00:17:02;;;;;;;34.50;18.00;;;;;;;;;;5073434;28;20055;-76
2023/04/29 00:19:28;;;;;;;31.92;17.45;;;;;;;;;;5073778;28;20056;-76
2023/04/29 00:21:54;;;;;;;33.95;17.38;;;;;;;;;;5074967;28;20044;-76
2023/04/29 00:24:20;;;;;;;30.90;17.30;;;;;;;;;;5074684;28;20047;-76
2023/04/29 00:26:47;;;;;;;29.83;17.50;;;;;;;;;;5072915;28;20175;-76
2023/04/29 00:29:13;;;;;;;31.67;17.63;;;;;;;;;;5053102;28;20076;-76
2023/04/29 00:31:39;;;;;;;32.05;19.13;;;;;;;;;;5036476;28;20037;-76
2023/04/29 00:34:05;;;;;;;36.97;18.58;;;;;;;;;;5052994;28;20044;-76
2023/04/29 00:36:32;;;;;;;36.17;18.48;;;;;;;;;;5053094;28;20049;-75
2023/04/29 00:38:58;;;;;;;32.50;18.17;;;;;;;;;;5063509;28;20122;-75
2023/04/29 00:41:25;;;;;;;33.42;17.25;;;;;;;;;;5072481;28;20074;-76
2023/04/29 00:43:51;;;;;;;30.13;17.48;;;;;;;;;;5073813;28;20521;-75
2023/04/29 00:46:17;;;;;;;31.10;17.73;;;;;;;;;;5060791;28;20103;-75
2023/04/29 00:48:43;;;;;;;34.95;17.83;;;;;;;;;;5065374;28;20037;-76
2023/04/29 00:51:10;;;;;;;37.78;18.75;;;;;;;;;;5072610;28;20094;-76
2023/04/29 00:53:37;;;;;;;35.47;19.30;;;;;;;;;;5066682;28;20110;-76
2023/04/29 00:56:03;;;;;;;35.00;19.38;;;;;;;;;;5058100;28;20068;-76
2023/04/29 00:58:32;;;;;;;37.35;20.40;;;;;;;;;;5063303;28;20040;-75
2023/04/29 01:01:05;;;;;;;40.67;21.08;;;;;;;;;;5036287;28;20056;-75
2023/04/29 01:03:31;;;;;;;33.38;19.35;;;;;;;;;;5053479;28;20044;-75
2023/04/29 01:06:10;;;;;;;35.10;18.30;;;;;;;;;;5053840;28;20072;-76
2023/04/29 01:08:48;;;;;;;35.22;17.75;;;;;;;;;;5063458;28;20052;-76
2023/04/29 01:11:16;;;;;;;40.90;18.98;;;;;;;;;;5073733;28;20040;-76
2023/04/29 01:13:43;;;;;;;36.10;17.58;;;;;;;;;;5071949;28;20068;-75
2023/04/29 01:16:18;;;;;;;37.72;19.23;;;;;;;;;;5070201;28;20039;-75
2023/04/29 01:18:54;;;;;;;44.05;21.55;;;;;;;;;;5071176;28;20102;-75
2023/04/29 01:21:20;;;;;;;;;;;;;;;;;;5074177;28;20044;-76
2023/04/29 01:23:46;;;;;;;45.70;23.55;;;;;;;;;;5073519;28;19948;-75
2023/04/29 01:26:13;;;;;;;41.38;23.88;;;;;;;;;;5053197;28;20495;-75
2023/04/29 01:28:39;;;;;;;44.47;24.58;;;;;;;;;;5054007;28;20040;-76
2023/04/29 01:31:24;;;;;;;44.92;24.10;;;;;;;;;;5059930;28;20044;-76
2023/04/29 01:33:54;;;;;;;41.60;21.48;;;;;;;;;;5069409;28;20057;-75
2023/04/29 01:36:23;;;;;;;42.63;21.17;;;;;;;;;;5053342;28;20049;-76
2023/04/29 01:39:02;;;;;;;42.72;20.85;;;;;;;;;;5053350;28;20037;-76
2023/04/29 01:41:35;;;;;;;44.55;21.08;;;;;;;;;;5053771;28;20498;-75
2023/04/29 01:44:05;;;;;;;40.55;20.42;;;;;;;;;;5060517;28;20051;-75
2023/04/29 01:46:31;;;;;;;37.15;20.05;;;;;;;;;;5059910;28;20131;-75
2023/04/29 01:48:57;;;;;;;37.03;19.45;;;;;;;;;;5070602;28;20115;-76
2023/04/29 01:51:23;;;;;;;35.33;18.98;;;;;;;;;;5072188;28;20052;-76
2023/04/29 01:53:49;;;;;;;32.97;17.67;;;;;;;;;;5053305;28;20041;-75
2023/04/29 01:56:15;;;;;;;32.00;16.33;;;;;;;;;;5055843;28;20041;-75
2023/04/29 01:58:41;;;;;;;36.47;17.20;;;;;;;;;;5071759;28;20375;-75
2023/04/29 02:01:09;;;;;;;29.13;16.25;;;;;;;;;;5073701;28;20037;-75
2023/04/29 02:03:35;;;;;;;28.00;14.75;;;;;;;;;;5072138;28;20052;-75
2023/04/29 02:06:01;;;;;;;29.30;16.95;;;;;;;;;;5072372;28;20131;-75
2023/04/29 02:08:27;;;;;;;30.70;16.50;;;;;;;;;;5058823;28;20058;-76
2023/04/29 02:10:54;;;;;;;26.48;15.07;;;;;;;;;;5057296;28;20041;-76
2023/04/29 02:13:20;;;;;;;29.13;15.80;;;;;;;;;;5057237;28;20069;-76
2023/04/29 02:15:46;;;;;;;27.75;15.35;;;;;;;;;;5058978;28;20147;-76
2023/04/29 02:18:12;;;;;;;26.55;15.95;;;;;;;;;;5062729;28;20102;-76
2023/04/29 02:20:38;;;;;;;33.42;17.10;;;;;;;;;;5056370;28;20045;-76
2023/04/29 02:23:04;;;;;;;33.38;17.45;;;;;;;;;;5056488;28;20049;-76
2023/04/29 02:25:30;;;;;;;33.95;19.20;;;;;;;;;;5057143;28;20045;-76
2023/04/29 02:27:56;;;;;;;31.90;17.98;;;;;;;;;;5060503;28;20057;-76
2023/04/29 02:30:22;;;;;;;30.02;16.15;;;;;;;;;;5056696;28;20053;-76
2023/04/29 02:32:48;;;;;;;30.83;17.75;;;;;;;;;;5056884;28;20159;-75
2023/04/29 02:35:15;;;;;;;32.60;16.58;;;;;;;;;;5056773;28;20090;-75
2023/04/29 02:37:41;;;;;;;29.45;16.02;;;;;;;;;;5073818;28;20040;-76
2023/04/29 02:40:07;;;;;;;26.77;16.65;;;;;;;;;;5076575;28;20056;-75
2023/04/29 02:42:33;;;;;;;29.02;14.88;;;;;;;;;;5076534;28;20045;-76
2023/04/29 02:44:59;;;;;;;27.30;14.10;;;;;;;;;;5073262;28;20048;-76
2023/04/29 02:47:26;;;;;;;24.08;12.75;;;;;;;;;;5072997;28;20120;-76
2023/04/29 02:49:52;;;;;;;28.27;14.45;;;;;;;;;;5078732;28;20068;-75
2023/04/29 02:52:18;;;;;;;21.75;13.18;;;;;;;;;;5080019;28;20049;-76
2023/04/29 02:54:44;;;;;;;24.60;13.90;;;;;;;;;;5078824;28;20561;-75
2023/04/29 02:57:10;;;;;;;21.30;13.73;;;;;;;;;;5077834;28;20048;-75
2023/04/29 02:59:36;;;;;;;23.60;12.98;;;;;;;;;;5054025;28;20045;-75
2023/04/29 03:02:02;;;;;;;27.80;14.50;;;;;;;;;;5040777;28;20052;-75
2023/04/29 03:04:29;;;;;;;23.88;13.77;;;;;;;;;;5062212;28;20051;-75
2023/04/29 03:06:55;;;;;;;27.10;15.40;;;;;;;;;;5055802;28;20097;-75
2023/04/29 03:09:22;;;;;;;28.40;15.93;;;;;;;;;;5076266;28;20079;-75
2023/04/29 03:11:48;;;;;;;36.60;16.58;;;;;;;;;;5075985;28;20131;-75
2023/04/29 03:14:14;;;;;;;28.08;14.45;;;;;;;;;;5063973;28;20037;-75
2023/04/29 03:16:41;;;;;;;30.90;13.82;;;;;;;;;;5054656;28;20069;-75
2023/04/29 03:19:07;;;;;;;24.27;13.38;;;;;;;;;;5075425;28;20060;-75
2023/04/29 03:21:34;;;;;;;24.77;13.68;;;;;;;;;;5075653;28;20049;-75
2023/04/29 03:24:00;;;;;;;24.23;13.57;;;;;;;;;;5075816;28;20058;-75
2023/04/29 03:26:26;;;;;;;22.52;11.82;;;;;;;;;;5067330;28;20378;-75
2023/04/29 03:28:52;;;;;;;24.40;12.40;;;;;;;;;;5075246;28;20506;-75
2023/04/29 03:31:20;;;;;;;19.05;11.85;;;;;;;;;;5075478;28;20048;-75
2023/04/29 03:33:46;;;;;;;20.55;11.27;;;;;;;;;;5073634;28;20459;-75
2023/04/29 03:36:12;;;;;;;25.33;11.85;;;;;;;;;;5056606;28;20065;-75
2023/04/29 03:38:38;;;;;;;21.88;12.25;;;;;;;;;;5055285;28;20073;-75
2023/04/29 03:41:04;;;;;;;19.60;12.05;;;;;;;;;;5053976;28;20045;-75
2023/04/29 03:43:31;;;;;;;20.20;11.30;;;;;;;;;;5060143;28;20051;-76
2023/04/29 03:45:57;;;;;;;21.13;12.85;;;;;;;;;;5069917;28;20517;-75
2023/04/29 03:48:23;;;;;;;21.38;11.52;;;;;;;;;;5055806;28;20499;-75
2023/04/29 03:50:49;;;;;;;21.17;11.73;;;;;;;;;;5053899;28;20049;-75
2023/04/29 03:53:16;;;;;;;19.00;11.35;;;;;;;;;;5055156;28;20036;-76
2023/04/29 03:55:42;;;;;;;18.77;11.77;;;;;;;;;;5053965;28;20052;-76
2023/04/29 03:58:08;;;;;;;19.52;10.70;;;;;;;;;;5054310;28;20095;-76
2023/04/29 04:00:37;;;;;;;17.58;9.88;;;;;;;;;;5074982;28;20128;-76
2023/04/29 04:03:03;;;;;;;13.80;9.10;;;;;;;;;;5066639;28;20048;-76
2023/04/29 04:05:29;;;;;;;15.63;9.60;;;;;;;;;;5053906;28;20539;-76
2023/04/29 04:07:55;;;;;;;16.60;9.50;;;;;;;;;;5057327;28;20044;-76
2023/04/29 04:10:21;;;;;;;14.27;9.00;;;;;;;;;;5054612;28;20056;-76
2023/04/29 04:12:47;;;;;;;18.90;9.27;;;;;;;;;;5054667;28;20052;-76
2023/04/29 04:15:13;;;;;;;19.20;9.45;;;;;;;;;;5036991;28;20170;-76
2023/04/29 04:17:40;;;;;;;18.17;9.35;;;;;;;;;;5053171;28;20049;-76
2023/04/29 04:20:06;;;;;;;17.35;9.45;;;;;;;;;;5053082;28;20088;-76
2023/04/29 04:22:32;;;;;;;14.07;8.55;;;;;;;;;;5060411;28;20048;-76
2023/04/29 04:24:58;;;;;;;15.63;8.73;;;;;;;;;;5072230;28;20052;-76
2023/04/29 04:27:24;;;;;;;16.92;9.25;;;;;;;;;;5069066;28;20041;-76
2023/04/29 04:29:53;;;;;;;17.17;9.52;;;;;;;;;;5060732;28;20116;-76
2023/04/29 04:32:20;;;;;;;16.40;9.57;;;;;;;;;;5054511;28;20041;-76
2023/04/29 04:34:47;;;;;;;18.95;9.70;;;;;;;;;;5054705;28;20103;-76
2023/04/29 04:37:13;;;;;;;14.27;8.57;;;;;;;;;;5055134;28;20053;-75
2023/04/29 04:39:39;;;;;;;16.33;8.65;;;;;;;;;;5053994;28;20475;-75
2023/04/29 04:42:06;;;;;;;18.75;9.40;;;;;;;;;;5065601;28;20048;-75
2023/04/29 04:44:32;;;;;;;12.13;8.30;;;;;;;;;;5059118;28;20045;-75
2023/04/29 04:47:01;;;;;;;17.27;8.27;;;;;;;;;;5053982;28;20433;-75
2023/04/29 04:49:27;;;;;;;20.30;9.80;;;;;;;;;;5052641;28;20411;-75
2023/04/29 04:51:53;;;;;;;13.80;9.48;;;;;;;;;;5052317;28;20080;-75
2023/04/29 04:54:19;;;;;;;16.60;8.82;;;;;;;;;;5052896;28;20144;-75
2023/04/29 04:56:47;;;;;;;21.05;8.32;;;;;;;;;;5053735;28;20071;-75
2023/04/29 04:59:13;;;;;;;15.90;9.02;;;;;;;;;;5060891;28;20430;-75
2023/04/29 05:01:39;;;;;;;17.65;8.18;;;;;;;;;;5052091;28;20048;-75
2023/04/29 05:04:06;;;;;;;18.13;9.45;;;;;;;;;;5035639;28;20127;-75
2023/04/29 05:06:32;;;;;;;14.95;9.00;;;;;;;;;;5052761;28;20056;-75
2023/04/29 05:08:58;;;;;;;17.00;8.65;;;;;;;;;;5053299;28;20085;-75
2023/04/29 05:11:24;;;;;;;14.93;8.73;;;;;;;;;;5052916;28;20045;-75
2023/04/29 05:13:50;;;;;;;16.65;8.25;;;;;;;;;;5035576;28;20049;-75
2023/04/29 05:16:16;;;;;;;19.48;8.70;;;;;;;;;;5045655;28;20106;-75
2023/04/29 05:18:44;;;;;;;15.75;7.90;;;;;;;;;;5051486;28;20126;-75
2023/04/29 05:21:11;;;;;;;16.25;8.23;;;;;;;;;;5036117;28;20067;-76
2023/04/29 05:23:37;;;;;;;16.48;9.13;;;;;;;;;;5054557;28;20291;-75
2023/04/29 05:26:03;;;;;;;15.93;8.27;;;;;;;;;;5073777;28;20090;-75
2023/04/29 05:28:29;;;;;;;15.98;8.20;;;;;;;;;;5072598;28;20040;-75
2023/04/29 05:30:55;;;;;;;14.88;7.97;;;;;;;;;;5054352;28;20445;-76
2023/04/29 05:33:21;;;;;;;17.50;8.32;;;;;;;;;;5053545;28;20069;-75
2023/04/29 05:35:47;;;;;;;18.40;8.82;;;;;;;;;;5057545;28;20045;-75
2023/04/29 05:38:13;;;;;;;17.52;8.73;;;;;;;;;;5062940;28;20041;-75
2023/04/29 05:40:39;;;;;;;17.27;9.32;;;;;;;;;;5057394;28;20037;-76
2023/04/29 05:43:06;;;;;;;14.63;8.40;;;;;;;;;;5057513;28;20048;-76
2023/04/29 05:45:32;;;;;;;16.63;9.23;;;;;;;;;;5067520;28;20124;-75
2023/04/29 05:47:58;;;;;;;18.88;8.18;;;;;;;;;;5057426;28;20063;-75
2023/04/29 05:50:24;;;;;;;19.27;9.32;;;;;;;;;;5057431;28;20450;-75
2023/04/29 05:52:50;;;;;;;18.80;8.40;;;;;;;;;;5069546;28;20116;-75
2023/04/29 05:55:16;;;;;;;17.95;7.65;;;;;;;;;;5076477;28;20048;-75
2023/04/29 05:57:42;;;;;;;15.05;7.47;;;;;;;;;;5078027;28;20519;-75
2023/04/29 06:00:09;;;;;;;19.58;7.93;;;;;;;;;;5079619;28;20040;-75
2023/04/29 06:02:35;;;;;;;17.08;7.38;;;;;;;;;;5079631;28;20475;-75
2023/04/29 06:05:01;;;;;;;12.07;7.15;;;;;;;;;;5078308;28;20048;-76
2023/04/29 06:07:27;;;;;;;12.38;6.57;;;;;;;;;;5070673;28;20041;-75
2023/04/29 06:09:53;;;;;;;18.33;7.30;;;;;;;;;;5076760;28;20051;-75
2023/04/29 06:12:19;;;;;;;15.82;7.18;;;;;;;;;;5073529;28;20045;-76
2023/04/29 06:14:45;;;;;;;17.08;7.50;;;;;;;;;;5061758;28;20501;-75
2023/04/29 06:17:12;;;;;;;14.20;6.70;;;;;;;;;;5062700;28;20486;-76
2023/04/29 06:19:38;;;;;;;12.93;6.55;;;;;;;;;;5071803;28;20056;-75
2023/04/29 06:22:04;;;;;;;16.67;6.50;;;;;;;;;;5077668;28;20122;-77
2023/04/29 06:24:30;;;;;;;14.05;6.53;;;;;;;;;;5078061;28;20044;-80
2023/04/29 06:26:56;;;;;;;15.38;6.38;;;;;;;;;;5054123;28;20469;-76
2023/04/29 06:29:22;;;;;;;11.60;6.05;;;;;;;;;;5057704;28;20106;-76
2023/04/29 06:31:48;;;;;;;14.10;6.10;;;;;;;;;;5058378;28;20041;-76
2023/04/29 06:34:14;;;;;;;16.05;6.05;;;;;;;;;;5062023;28;20076;-76
2023/04/29 06:36:40;;;;;;;12.35;5.60;;;;;;;;;;5054944;28;20051;-76
2023/04/29 06:39:06;;;;;;;12.25;5.80;;;;;;;;;;5055509;28;20040;-76
2023/04/29 06:41:33;;;;;;;13.15;5.35;;;;;;;;;;5056777;28;20398;-75
2023/04/29 06:43:59;;;;;;;15.40;6.03;;;;;;;;;;5056700;28;20044;-76
2023/04/29 06:46:26;;;;;;;13.32;5.57;;;;;;;;;;5068803;28;20044;-76
2023/04/29 06:48:52;;;;;;;11.75;5.47;;;;;;;;;;5063517;28;20049;-76
2023/04/29 06:51:18;;;;;;;12.30;5.47;;;;;;;;;;5056352;28;20075;-76
2023/04/29 06:53:45;;;;;;;12.13;5.35;;;;;;;;;;5055861;28;20071;-76
2023/04/29 06:56:11;;;;;;;13.85;6.03;;;;;;;;;;5061205;28;20051;-75
2023/04/29 06:58:38;;;;;;;12.80;5.85;;;;;;;;;;5066972;28;20049;-76
2023/04/29 07:01:06;;;;;;;13.07;5.03;;;;;;;;;;5057702;28;20052;-76
2023/04/29 07:03:32;;;;;;;11.82;5.28;;;;;;;;;;5055872;28;20078;-76
2023/04/29 07:05:58;;;;;;;7.63;5.05;;;;;;;;;;5055729;28;20559;-76
2023/04/29 07:08:24;;;;;;;10.73;5.18;;;;;;;;;;5055594;28;20517;-76
2023/04/29 07:11:16;;;;;;;11.30;5.30;;;;;;;;;;5069891;28;20040;-76
2023/04/29 07:13:42;;;;;;;9.77;5.20;;;;;;;;;;5053798;28;20049;-76
2023/04/29 07:16:17;;;;;;;13.88;5.18;;;;;;;;;;5054745;28;20140;-76
2023/04/29 07:18:43;;;;;;;11.20;4.80;;;;;;;;;;5044216;28;20048;-76
2023/04/29 07:21:09;;;;;;;10.40;5.00;;;;;;;;;;5055364;28;20089;-76
2023/04/29 07:23:35;;;;;;;13.25;5.50;;;;;;;;;;5055599;28;20096;-76
2023/04/29 07:26:12;;;;;;;10.60;5.00;;;;;;;;;;5070021;28;20065;-76
2023/04/29 07:28:38;;;;;;;9.82;5.20;;;;;;;;;;5038983;28;20041;-76
2023/04/29 07:31:05;;;;;;;10.05;5.07;;;;;;;;;;5056324;28;20045;-76
2023/04/29 07:33:31;;;;;;;10.55;5.20;;;;;;;;;;5061603;28;20051;-76
2023/04/29 07:35:57;;;;;;;9.38;5.30;;;;;;;;;;5054304;28;20576;-76
2023/04/29 07:38:24;;;;;;;11.35;4.90;;;;;;;;;;5064226;28;20045;-76
2023/04/29 07:40:50;;;;;;;13.07;4.97;;;;;;;;;;5074857;28;20147;-76
2023/04/29 07:43:16;;;;;;;10.93;4.90;;;;;;;;;;5067487;28;20450;-81
2023/04/29 07:45:42;;;;;;;11.60;5.20;;;;;;;;;;5066174;28;20045;-81
2023/04/29 07:48:08;;;;;;;7.95;5.20;;;;;;;;;;5074673;28;20060;-79
2023/04/29 07:50:35;;;;;;;16.23;5.30;;;;;;;;;;5075691;28;20053;-77
2023/04/29 07:53:01;;;;;;;10.88;5.30;;;;;;;;;;5075290;28;20067;-76
2023/04/29 07:55:30;;;;;;;11.10;5.15;;;;;;;;;;5060702;28;20045;-76
2023/04/29 07:57:57;;;;;;;9.90;4.95;;;;;;;;;;5069778;28;20040;-76
2023/04/29 08:00:23;;;;;;;10.75;4.93;;;;;;;;;;5071376;28;20044;-76
2023/04/29 08:02:53;;;;;;;10.48;4.75;;;;;;;;;;5094249;28;20102;-76
2023/04/29 08:05:20;;;;;;;8.50;5.00;;;;;;;;;;5074222;28;20133;-76
2023/04/29 08:07:49;;;;;;;10.73;5.05;;;;;;;;;;5057257;28;20395;-77
2023/04/29 08:10:16;;;;;;;10.27;5.28;;;;;;;;;;5055459;28;20120;-76
2023/04/29 08:12:45;;;;;;;9.98;5.07;;;;;;;;;;5070106;28;20041;-76
2023/04/29 08:15:11;;;;;;;7.82;4.70;;;;;;;;;;5070270;28;20041;-76
2023/04/29 08:17:37;;;;;;;10.85;5.25;;;;;;;;;;5059328;28;20049;-76
2023/04/29 08:20:03;;;;;;;8.10;5.20;;;;;;;;;;5038565;28;20060;-76
2023/04/29 08:22:29;;;;;;;7.40;5.22;;;;;;;;;;5053096;28;20048;-76
2023/04/29 08:24:56;;;;;;;10.23;6.05;;;;;;;;;;5060409;28;20049;-76
2023/04/29 08:27:23;;;;;;;13.52;5.38;;;;;;;;;;5066888;28;20080;-76
2023/04/29 08:29:49;;;;;;;8.60;5.72;;;;;;;;;;5071213;28;20098;-76
2023/04/29 08:32:15;;;;;;;11.50;5.78;;;;;;;;;;5069200;28;20041;-76
2023/04/29 08:34:41;;;;;;;12.05;6.28;;;;;;;;;;5063832;28;20081;-76
2023/04/29 08:37:07;;;;;;;11.10;6.43;;;;;;;;;;5055481;28;20126;-76
2023/04/29 08:39:33;;;;;;;14.18;6.72;;;;;;;;;;5053865;28;20037;-76
2023/04/29 08:42:00;;;;;;;14.18;7.32;;;;;;;;;;5055400;28;20048;-76
2023/04/29 08:44:26;;;;;;;10.35;6.75;;;;;;;;;;5073191;28;20070;-76
2023/04/29 08:46:52;;;;;;;11.18;6.70;;;;;;;;;;5052605;28;20093;-76
2023/04/29 08:49:18;;;;;;;9.90;6.40;;;;;;;;;;5053897;28;20053;-76
2023/04/29 08:51:45;;;;;;;15.60;7.20;;;;;;;;;;5053848;28;20045;-76
2023/04/29 08:54:11;;;;;;;12.55;7.30;;;;;;;;;;5054177;28;20041;-76
2023/04/29 08:56:38;;;;;;;14.10;6.65;;;;;;;;;;5054764;28;20067;-76
2023/04/29 08:59:05;;;;;;;11.18;5.82;;;;;;;;;;5056393;28;20041;-76
2023/04/29 09:01:32;;;;;;;10.75;6.38;;;;;;;;;;5056874;28;20111;-76
2023/04/29 09:04:04;;;;;;;9.50;5.80;;;;;;;;;;5064169;28;20044;-76
2023/04/29 09:06:33;;;;;;;11.05;6.10;;;;;;;;;;5073723;28;20036;-76
2023/04/29 09:09:01;;;;;;;9.70;6.15;;;;;;;;;;5073173;28;20041;-76
2023/04/29 09:11:28;;;;;;;9.98;5.68;;;;;;;;;;5075465;28;20127;-76
2023/04/29 09:13:59;;;;;;;12.07;6.10;;;;;;;;;;5077358;28;20075;-75
2023/04/29 09:16:25;;;;;;;10.45;5.95;;;;;;;;;;5060131;28;20041;-75
2023/04/29 09:18:51;;;;;;;11.07;6.05;;;;;;;;;;5066946;28;20060;-75
2023/04/29 09:21:18;;;;;;;11.35;5.80;;;;;;;;;;5069108;28;20061;-75
2023/04/29 09:23:45;;;;;;;12.68;6.60;;;;;;;;;;5053601;28;20045;-75
2023/04/29 09:26:11;;;;;;;11.23;5.53;;;;;;;;;;5053803;28;20483;-75
2023/04/29 09:28:39;;;;;;;8.45;5.55;;;;;;;;;;5053387;28;20514;-75
2023/04/29 09:31:07;;;;;;;11.50;4.82;;;;;;;;;;5067937;28;20051;-75
2023/04/29 09:33:49;;;;;;;9.85;5.05;;;;;;;;;;5073492;28;20498;-75
2023/04/29 09:36:35;;;;;;;9.95;4.55;;;;;;;;;;5072844;28;20067;-75
2023/04/29 09:39:01;;;;;;;8.27;4.40;;;;;;;;;;5073334;28;20102;-75
2023/04/29 09:41:27;;;;;;;8.02;3.70;;;;;;;;;;5073460;28;20041;-75
2023/04/29 09:44:05;;;;;;;8.00;4.78;;;;;;;;;;5064497;28;20076;-75
2023/04/29 09:46:32;;;;;;;9.15;4.38;;;;;;;;;;5073249;28;20449;-76
2023/04/29 09:48:58;;;;;;;6.18;3.88;;;;;;;;;;5073366;28;20049;-75
2023/04/29 09:51:24;;;;;;;6.22;3.70;;;;;;;;;;5066623;28;20041;-76
2023/04/29 09:53:51;;;;;;;6.20;4.30;;;;;;;;;;5053479;28;20045;-78
2023/04/29 09:56:17;;;;;;;8.10;3.65;;;;;;;;;;5055109;28;20474;-78
2023/04/29 09:58:43;;;;;;;9.95;4.30;;;;;;;;;;5054310;28;20041;-82
2023/04/29 10:01:12;;;;;;;7.20;3.80;;;;;;;;;;5054670;28;20510;-80
2023/04/29 10:03:38;;;;;;;9.88;4.00;;;;;;;;;;5055200;28;20048;-79
2023/04/29 10:06:05;;;;;;;7.28;3.30;;;;;;;;;;5054530;28;20076;-79
2023/04/29 10:08:32;;;;;;;5.53;3.42;;;;;;;;;;5054236;28;20077;-77
2023/04/29 10:10:59;;;;;;;6.47;3.53;;;;;;;;;;5053239;28;20095;-76
2023/04/29 10:13:25;;;;;;;6.50;3.08;;;;;;;;;;5053705;28;20087;-74
2023/04/29 10:16:02;;;;;;;5.55;2.80;;;;;;;;;;5059172;28;20143;-74
2023/04/29 10:18:35;;;;;;;8.93;3.58;;;;;;;;;;5052766;28;20102;-75
2023/04/29 10:21:02;;;;;;;6.10;3.20;;;;;;;;;;5053151;28;20120;-75
2023/04/29 10:23:30;;;;;;;8.40;3.42;;;;;;;;;;5055898;28;20045;-74
2023/04/29 10:25:57;;;;;;;4.72;2.72;;;;;;;;;;5076724;28;20494;-75
2023/04/29 10:28:23;;;;;;;4.60;3.03;;;;;;;;;;5059669;28;20045;-76
2023/04/29 10:30:53;;;;;;;4.95;2.78;;;;;;;;;;5055222;28;20124;-75
2023/04/29 10:33:22;;;;;;;7.75;2.92;;;;;;;;;;5056694;28;20044;-74
2023/04/29 10:35:48;;;;;;;7.07;2.90;;;;;;;;;;5056776;28;20080;-74
2023/04/29 10:38:28;;;;;;;4.70;3.25;;;;;;;;;;5057651;28;20049;-73
2023/04/29 10:40:56;;;;;;;7.70;3.50;;;;;;;;;;5070527;28;20041;-73
2023/04/29 10:43:26;;;;;;;5.18;3.15;;;;;;;;;;5052806;28;20143;-73
2023/04/29 10:46:10;;;;;;;7.13;3.20;;;;;;;;;;5056136;28;20106;-74
2023/04/29 10:48:36;;;;;;;4.40;3.03;;;;;;;;;;5073091;28;20041;-74
2023/04/29 10:51:03;;;;;;;6.47;3.38;;;;;;;;;;5060592;28;20395;-74
2023/04/29 10:53:29;;;;;;;5.60;3.22;;;;;;;;;;5055081;28;20376;-74
2023/04/29 10:56:07;;;;;;;5.13;3.95;;;;;;;;;;5038365;28;20049;-75
2023/04/29 10:58:37;;;;;;;7.97;3.47;;;;;;;;;;5055180;28;20099;-75
2023/04/29 11:01:03;;;;;;;8.70;3.70;;;;;;;;;;5054986;28;20041;-74
2023/04/29 11:03:49;;;;;;;7.75;3.30;;;;;;;;;;5054926;28;20045;-75
2023/04/29 11:06:16;;;;;;;5.78;3.25;;;;;;;;;;5064600;28;20044;-79
2023/04/29 11:08:42;;;;;;;7.65;3.67;;;;;;;;;;5038506;28;20123;-75
2023/04/29 11:11:08;;;;;;;4.50;2.72;;;;;;;;;;5056040;28;20102;-74
2023/04/29 11:13:38;;;;;;;7.55;4.05;;;;;;;;;;5056834;28;20041;-75
2023/04/29 11:16:05;;;;;;;6.53;3.63;;;;;;;;;;5075872;28;20497;-74
2023/04/29 11:18:31;;;;;;;6.13;3.47;;;;;;;;;;5057179;28;20053;-74
2023/04/29 11:21:04;;;;;;;5.57;3.45;;;;;;;;;;5057473;28;20494;-74
2023/04/29 11:23:31;;;;;;;7.13;4.30;;;;;;;;;;5055830;28;20084;-74
2023/04/29 11:25:57;;;;;;;7.65;4.18;;;;;;;;;;5064453;28;20479;-74
2023/04/29 11:28:27;;;;;;;4.65;3.30;;;;;;;;;;5066414;28;20558;-74
2023/04/29 11:30:53;;;;;;;4.88;3.13;;;;;;;;;;5055392;28;20044;-75
2023/04/29 11:33:20;;;;;;;6.10;3.42;;;;;;;;;;5055242;28;20045;-75
2023/04/29 11:35:46;;;;;;;7.20;3.38;;;;;;;;;;5054599;28;20076;-75
2023/04/29 11:38:12;;;;;;;6.10;2.97;;;;;;;;;;5055390;28;20048;-75
2023/04/29 11:40:42;;;;;;;4.43;3.28;;;;;;;;;;5055390;28;20056;-75
2023/04/29 11:43:08;;;;;;;6.85;3.70;;;;;;;;;;5055063;28;20040;-75
2023/04/29 11:45:39;;;;;;;5.03;2.60;;;;;;;;;;5061873;28;20040;-75
2023/04/29 11:48:06;;;;;;;3.20;2.80;;;;;;;;;;5074456;28;20044;-75
2023/04/29 11:50:32;;;;;;;4.13;2.78;;;;;;;;;;5075016;28;20376;-75
2023/04/29 11:52:58;;;;;;;3.75;2.65;;;;;;;;;;5073873;28;20052;-75
2023/04/29 11:55:25;;;;;;;3.85;2.50;;;;;;;;;;5068009;28;20476;-75
2023/04/29 11:57:52;;;;;;;4.30;3.03;;;;;;;;;;5070014;28;20040;-75
2023/04/29 12:00:23;;;;;;;3.97;2.40;;;;;;;;;;5072395;28;20066;-75
2023/04/29 12:02:49;;;;;;;4.38;2.92;;;;;;;;;;5073407;28;20052;-75
2023/04/29 12:05:17;;;;;;;4.32;3.03;;;;;;;;;;5073111;28;20076;-75
2023/04/29 12:07:43;;;;;;;4.03;2.67;;;;;;;;;;5074216;28;20053;-75
2023/04/29 12:10:10;;;;;;;6.20;2.90;;;;;;;;;;5053639;28;20049;-75
2023/04/29 12:12:39;;;;;;;3.90;3.10;;;;;;;;;;5056423;28;20045;-75
2023/04/29 12:15:06;;;;;;;8.50;3.83;;;;;;;;;;5053277;28;20172;-75
2023/04/29 12:17:32;;;;;;;3.80;2.70;;;;;;;;;;5055669;28;20049;-75
2023/04/29 12:19:58;;;;;;;3.97;2.88;;;;;;;;;;5073896;28;20052;-75
2023/04/29 12:22:30;;;;;;;4.13;2.83;;;;;;;;;;5072842;28;20048;-75
2023/04/29 12:24:57;;;;;;;7.05;4.40;;;;;;;;;;5074242;28;20498;-75
2023/04/29 12:27:23;;;;;;;6.85;4.00;;;;;;;;;;5071548;28;20043;-75
2023/04/29 12:29:51;;;;;;;8.27;4.60;;;;;;;;;;5074256;28;20052;-75
2023/04/29 12:32:18;;;;;;;6.40;4.50;;;;;;;;;;5062251;28;20036;-75
2023/04/29 12:34:46;;;;;;;6.00;3.88;;;;;;;;;;5063284;28;20062;-75
2023/04/29 12:37:12;;;;;;;8.82;3.72;;;;;;;;;;5058897;28;20043;-75
2023/04/29 12:39:38;;;;;;;9.32;4.68;;;;;;;;;;5063295;28;20045;-75
2023/04/29 12:42:04;;;;;;;6.18;4.00;;;;;;;;;;5074549;28;20056;-75
2023/04/29 12:44:36;;;;;;;8.00;4.35;;;;;;;;;;5060726;28;20068;-75
2023/04/29 12:47:08;;;;;;;8.52;5.13;;;;;;;;;;5053291;28;20594;-75
2023/04/29 12:49:34;;;;;;;11.20;5.57;;;;;;;;;;5054206;28;20044;-75
2023/04/29 12:52:01;;;;;;;10.43;5.57;;;;;;;;;;5052514;28;20045;-75
2023/04/29 12:54:27;;;;;;;11.32;6.22;;;;;;;;;;5052951;28;20056;-75
2023/04/29 12:56:54;;;;;;;9.18;5.70;;;;;;;;;;5053427;28;20094;-75
2023/04/29 12:59:20;;;;;;;7.70;4.63;;;;;;;;;;5052631;28;20053;-75
2023/04/29 13:01:46;;;;;;;8.05;5.25;;;;;;;;;;5035717;28;20523;-76
2023/04/29 13:04:12;;;;;;;10.80;5.75;;;;;;;;;;5058260;28;20113;-75
2023/04/29 13:06:38;;;;;;;11.73;5.90;;;;;;;;;;5058175;28;20052;-78
2023/04/29 13:09:05;;;;;;;15.02;6.95;;;;;;;;;;5059311;28;20411;-74
2023/04/29 13:11:31;;;;;;;9.80;5.32;;;;;;;;;;5061710;28;20368;-74
2023/04/29 13:13:57;;;;;;;11.68;6.45;;;;;;;;;;5062468;28;20097;-77
2023/04/29 13:16:24;;;;;;;9.60;6.40;;;;;;;;;;5058516;28;20069;-75
2023/04/29 13:18:50;;;;;;;7.53;5.97;;;;;;;;;;5059079;28;20052;-75
2023/04/29 13:21:16;;;;;;;10.30;6.57;;;;;;;;;;5062425;28;20111;-75
2023/04/29 13:23:42;;;;;;;9.35;6.35;;;;;;;;;;5062198;28;20402;-75
2023/04/29 13:26:08;;;;;;;10.23;6.57;;;;;;;;;;5063019;28;20072;-75
2023/04/29 13:28:34;;;;;;;10.95;6.45;;;;;;;;;;5053788;28;20558;-75
2023/04/29 13:31:00;;;;;;;9.77;6.90;;;;;;;;;;5051578;28;20391;-75
2023/04/29 13:33:26;;;;;;;9.82;6.40;;;;;;;;;;5058237;28;20479;-75
2023/04/29 13:35:52;;;;;;;10.20;6.30;;;;;;;;;;5058610;28;20036;-75
2023/04/29 13:38:18;;;;;;;8.63;6.32;;;;;;;;;;5056780;28;20041;-75
2023/04/29 13:40:45;;;;;;;11.02;6.35;;;;;;;;;;5064118;28;20052;-75
2023/04/29 13:43:11;;;;;;;10.52;6.30;;;;;;;;;;5057279;28;20399;-74
2023/04/29 13:45:37;;;;;;;10.77;6.90;;;;;;;;;;5067819;28;20382;-75
2023/04/29 13:48:03;;;;;;;11.05;6.60;;;;;;;;;;5048259;28;20048;-74
2023/04/29 13:50:29;;;;;;;10.13;6.32;;;;;;;;;;5072797;28;20089;-75
2023/04/29 13:52:56;;;;;;;12.25;6.70;;;;;;;;;;5062386;28;20135;-75
2023/04/29 13:55:23;;;;;;;10.40;7.30;;;;;;;;;;5070937;28;20102;-75
2023/04/29 13:57:49;;;;;;;9.55;6.65;;;;;;;;;;5074774;28;20084;-75
2023/04/29 14:00:16;;;;;;;8.90;6.32;;;;;;;;;;5086927;28;20135;-75
2023/04/29 14:02:42;;;;;;;12.00;6.25;;;;;;;;;;5075054;28;20040;-75
2023/04/29 14:05:09;;;;;;;9.45;5.93;;;;;;;;;;5074520;28;20090;-75
2023/04/29 14:07:35;;;;;;;12.57;6.57;;;;;;;;;;5065863;28;20045;-75
2023/04/29 14:10:01;;;;;;;10.75;5.85;;;;;;;;;;5073721;28;20052;-75
2023/04/29 14:12:27;;;;;;;12.77;6.47;;;;;;;;;;5052188;28;20045;-75
2023/04/29 14:14:53;;;;;;;11.90;6.85;;;;;;;;;;5060052;28;20045;-75
2023/04/29 14:17:19;;;;;;;11.90;5.90;;;;;;;;;;5075381;28;20098;-75
2023/04/29 14:19:45;;;;;;;10.73;6.15;;;;;;;;;;5068152;28;20061;-76
2023/04/29 14:22:11;;;;;;;10.32;6.22;;;;;;;;;;5073845;28;20049;-75
2023/04/29 14:24:38;;;;;;;12.55;7.10;;;;;;;;;;5067918;28;20036;-75
2023/04/29 14:27:04;;;;;;;9.75;5.95;;;;;;;;;;5063123;28;20443;-75
2023/04/29 14:29:30;;;;;;;12.45;6.78;;;;;;;;;;5075601;28;20056;-75
2023/04/29 14:31:56;;;;;;;11.43;6.13;;;;;;;;;;5063225;28;20037;-75